Time;durP1;ratioP1;P1;durP2;ratioP2;P2;SDS_P1;SDS_P2;PMS_P1;PMS_P2;Temp;Humidity;BMP_temperature;BMP_pressure;BME280_temperature;BME280_humidity;BME280_pressure;Samples;Min_cycle;Max_cycle;Signal;HPM_P1;HPM_P2
2023/08/06 00:02:04;;;;;;;7.20;4.57;;;;;;;;;;5030473;28;20472;-57
2023/08/06 00:04:31;;;;;;;6.57;4.37;;;;;;;;;;5026724;28;20423;-58
2023/08/06 00:06:58;;;;;;;6.07;4.20;;;;;;;;;;5029696;28;20411;-59
2023/08/06 00:09:25;;;;;;;6.15;4.40;;;;;;;;;;5026510;28;20488;-59
2023/08/06 00:11:52;;;;;;;6.05;4.40;;;;;;;;;;5029755;28;20419;-57
2023/08/06 00:14:19;;;;;;;4.90;4.13;;;;;;;;;;5031506;28;20486;-58
2023/08/06 00:16:47;;;;;;;6.65;4.07;;;;;;;;;;5034039;28;20480;-58
2023/08/06 00:19:14;;;;;;;7.10;4.35;;;;;;;;;;5022986;28;20772;-58
2023/08/06 00:21:41;;;;;;;5.38;4.20;;;;;;;;;;5028497;28;20732;-59
2023/08/06 00:24:08;;;;;;;7.82;5.03;;;;;;;;;;5025138;28;20477;-55
2023/08/06 00:26:35;;;;;;;5.30;4.50;;;;;;;;;;5026507;28;20413;-58
2023/08/06 00:29:02;;;;;;;7.85;4.70;;;;;;;;;;5025384;28;20407;-59
2023/08/06 00:31:29;;;;;;;6.88;4.70;;;;;;;;;;5026922;28;20972;-55
2023/08/06 00:33:58;;;;;;;6.68;4.70;;;;;;;;;;5025472;28;20500;-59
2023/08/06 00:36:25;;;;;;;7.32;4.45;;;;;;;;;;5026950;28;20481;-57
2023/08/06 00:38:52;;;;;;;5.95;4.38;;;;;;;;;;5024653;28;20435;-59
2023/08/06 00:41:19;;;;;;;6.88;4.40;;;;;;;;;;5026889;28;20509;-57
2023/08/06 00:43:46;;;;;;;7.80;4.60;;;;;;;;;;5032126;28;20418;-58
2023/08/06 00:46:13;;;;;;;7.80;4.70;;;;;;;;;;5028578;28;20422;-57
2023/08/06 00:48:40;;;;;;;7.90;4.43;;;;;;;;;;5022509;28;20430;-57
2023/08/06 00:51:10;;;;;;;7.82;4.50;;;;;;;;;;5027494;28;20522;-59
2023/08/06 00:53:37;;;;;;;7.75;4.90;;;;;;;;;;5025147;28;20411;-59
2023/08/06 00:56:04;;;;;;;6.88;4.40;;;;;;;;;;5029602;28;20425;-59
2023/08/06 00:58:31;;;;;;;7.23;4.53;;;;;;;;;;5023993;28;20426;-57
2023/08/06 01:00:59;;;;;;;7.30;4.67;;;;;;;;;;5026912;28;20615;-59
2023/08/06 01:03:26;;;;;;;10.80;4.78;;;;;;;;;;5023435;28;20829;-59
2023/08/06 01:05:53;;;;;;;5.38;4.78;;;;;;;;;;5026977;28;20423;-58
2023/08/06 01:08:29;;;;;;;6.25;4.40;;;;;;;;;;5023579;28;20414;-59
2023/08/06 01:11:01;;;;;;;6.55;4.25;;;;;;;;;;5024320;28;20496;-59
2023/08/06 01:13:33;;;;;;;6.20;4.65;;;;;;;;;;5027138;28;20419;-58
2023/08/06 01:16:00;;;;;;;6.22;4.50;;;;;;;;;;5028956;28;20891;-56
2023/08/06 01:18:27;;;;;;;6.65;4.35;;;;;;;;;;5026621;28;20956;-59
2023/08/06 01:20:55;;;;;;;6.18;4.47;;;;;;;;;;5025789;28;20422;-58
2023/08/06 01:23:23;;;;;;;6.10;4.00;;;;;;;;;;5025573;28;20538;-59
2023/08/06 01:25:52;;;;;;;8.07;4.13;;;;;;;;;;5024866;28;20419;-58
2023/08/06 01:28:24;;;;;;;5.13;4.50;;;;;;;;;;5025404;28;20410;-58
2023/08/06 01:30:51;;;;;;;7.23;4.77;;;;;;;;;;5024995;28;20446;-56
2023/08/06 01:33:22;;;;;;;5.88;4.65;;;;;;;;;;5024522;28;20766;-57
2023/08/06 01:35:50;;;;;;;6.40;4.43;;;;;;;;;;5024236;28;20881;-57
2023/08/06 01:38:18;;;;;;;5.55;4.35;;;;;;;;;;5023638;28;20431;-58
2023/08/06 01:40:45;;;;;;;5.63;4.40;;;;;;;;;;5023601;28;20420;-59
2023/08/06 01:43:12;;;;;;;9.48;4.72;;;;;;;;;;5026717;28;20473;-59
2023/08/06 01:45:39;;;;;;;6.03;4.25;;;;;;;;;;5028330;28;20428;-58
2023/08/06 01:48:06;;;;;;;5.25;4.28;;;;;;;;;;5029583;28;20411;-57
2023/08/06 01:50:33;;;;;;;6.13;4.57;;;;;;;;;;5021235;28;20478;-57
2023/08/06 01:53:00;;;;;;;5.70;4.15;;;;;;;;;;5027805;28;20419;-59
2023/08/06 01:55:30;;;;;;;5.50;4.38;;;;;;;;;;5020671;28;20467;-58
2023/08/06 01:57:57;;;;;;;6.43;4.60;;;;;;;;;;5027291;28;20909;-59
2023/08/06 02:00:24;;;;;;;7.03;4.85;;;;;;;;;;5020906;28;20413;-59
2023/08/06 02:02:51;;;;;;;6.67;4.57;;;;;;;;;;5028307;28;20415;-59
2023/08/06 02:05:18;;;;;;;10.13;4.15;;;;;;;;;;5020496;28;20428;-59
2023/08/06 02:07:45;;;;;;;5.60;4.07;;;;;;;;;;5027377;28;20419;-58
2023/08/06 02:10:12;;;;;;;5.28;3.90;;;;;;;;;;5023830;28;20419;-59
2023/08/06 02:12:40;;;;;;;7.22;4.43;;;;;;;;;;5025396;28;20466;-59
2023/08/06 02:15:08;;;;;;;7.55;4.35;;;;;;;;;;5033334;28;20867;-59
2023/08/06 02:17:35;;;;;;;6.50;4.43;;;;;;;;;;5027364;28;20440;-59
2023/08/06 02:20:02;;;;;;;5.90;3.95;;;;;;;;;;5023911;28;20415;-58
2023/08/06 02:22:29;;;;;;;4.82;4.10;;;;;;;;;;5024390;28;20427;-59
2023/08/06 02:24:56;;;;;;;8.98;3.90;;;;;;;;;;5022855;28;20477;-59
2023/08/06 02:27:23;;;;;;;6.00;4.40;;;;;;;;;;5024494;28;20829;-59
2023/08/06 02:29:51;;;;;;;5.82;4.15;;;;;;;;;;5025657;28;20423;-60
2023/08/06 02:32:18;;;;;;;5.13;4.13;;;;;;;;;;5023373;28;20426;-59
2023/08/06 02:34:45;;;;;;;6.25;4.10;;;;;;;;;;5028988;28;20424;-59
2023/08/06 02:37:12;;;;;;;7.05;4.53;;;;;;;;;;5025283;28;20882;-59
2023/08/06 02:39:40;;;;;;;6.30;4.10;;;;;;;;;;5027476;28;20423;-58
2023/08/06 02:42:07;;;;;;;6.95;4.65;;;;;;;;;;5025806;28;20882;-58
2023/08/06 02:44:34;;;;;;;6.03;4.22;;;;;;;;;;5030374;28;20514;-59
2023/08/06 02:47:03;;;;;;;5.95;4.35;;;;;;;;;;5029137;28;20798;-60
2023/08/06 02:49:30;;;;;;;4.93;4.20;;;;;;;;;;5020881;28;20414;-60
2023/08/06 02:51:57;;;;;;;5.30;4.20;;;;;;;;;;5021726;28;20453;-59
2023/08/06 02:54:24;;;;;;;7.38;4.03;;;;;;;;;;5022327;28;20421;-59
2023/08/06 02:56:51;;;;;;;8.15;4.57;;;;;;;;;;5024574;28;20485;-59
2023/08/06 02:59:18;;;;;;;8.55;5.22;;;;;;;;;;5027799;28;20813;-58
2023/08/06 03:01:45;;;;;;;5.13;4.57;;;;;;;;;;5026906;28;20478;-59
2023/08/06 03:04:13;;;;;;;6.78;4.72;;;;;;;;;;5030025;28;20426;-59
2023/08/06 03:06:40;;;;;;;5.68;4.50;;;;;;;;;;5024707;28;20891;-59
2023/08/06 03:09:07;;;;;;;7.88;4.38;;;;;;;;;;5030914;28;20473;-59
2023/08/06 03:11:34;;;;;;;5.43;4.53;;;;;;;;;;5027052;28;20553;-57
2023/08/06 03:14:01;;;;;;;8.57;4.80;;;;;;;;;;5032969;28;20409;-59
2023/08/06 03:16:28;;;;;;;5.93;4.43;;;;;;;;;;5027944;28;20420;-59
2023/08/06 03:18:55;;;;;;;6.78;4.70;;;;;;;;;;5031158;28;20793;-58
2023/08/06 03:21:23;;;;;;;6.53;4.90;;;;;;;;;;5028334;28;20426;-57
2023/08/06 03:23:50;;;;;;;7.15;4.40;;;;;;;;;;5027926;28;20901;-58
2023/08/06 03:26:17;;;;;;;6.65;4.50;;;;;;;;;;5026111;28;20480;-60
2023/08/06 03:28:44;;;;;;;6.68;4.60;;;;;;;;;;5028997;28;20922;-60
2023/08/06 03:31:11;;;;;;;6.25;4.45;;;;;;;;;;5026653;28;20419;-61
2023/08/06 03:33:38;;;;;;;6.28;4.35;;;;;;;;;;5028570;28;20416;-59
2023/08/06 03:36:05;;;;;;;6.43;4.90;;;;;;;;;;5026533;28;20473;-58
2023/08/06 03:38:34;;;;;;;6.22;4.90;;;;;;;;;;5027113;28;20484;-59
2023/08/06 03:41:01;;;;;;;6.85;4.70;;;;;;;;;;5026544;28;20430;-57
2023/08/06 03:43:28;;;;;;;4.93;4.40;;;;;;;;;;5025581;28;20423;-56
2023/08/06 03:45:55;;;;;;;6.50;4.07;;;;;;;;;;5028630;28;20419;-59
2023/08/06 03:48:22;;;;;;;5.18;4.40;;;;;;;;;;5026808;28;20465;-59
2023/08/06 03:50:48;;;;;;;5.85;4.40;;;;;;;;;;5025369;28;20416;-59
2023/08/06 03:53:16;;;;;;;5.57;4.53;;;;;;;;;;5030050;28;20414;-57
2023/08/06 03:55:44;;;;;;;7.05;4.90;;;;;;;;;;5025545;28;20835;-59
2023/08/06 03:58:11;;;;;;;6.80;4.40;;;;;;;;;;5030906;28;20434;-59
2023/08/06 04:00:38;;;;;;;7.37;4.30;;;;;;;;;;5022361;28;20591;-59
2023/08/06 04:03:05;;;;;;;6.70;4.70;;;;;;;;;;5029545;28;20870;-59
2023/08/06 04:05:33;;;;;;;7.32;4.63;;;;;;;;;;5025721;28;20473;-58
2023/08/06 04:08:00;;;;;;;7.07;4.30;;;;;;;;;;5028381;28;20510;-59
2023/08/06 04:10:27;;;;;;;5.05;4.00;;;;;;;;;;5018484;28;20503;-58
2023/08/06 04:12:55;;;;;;;6.93;4.78;;;;;;;;;;5024040;28;20414;-58
2023/08/06 04:15:22;;;;;;;6.03;3.95;;;;;;;;;;5028663;28;20423;-59
2023/08/06 04:17:49;;;;;;;6.90;4.13;;;;;;;;;;5024470;28;20419;-58
2023/08/06 04:20:16;;;;;;;5.60;4.10;;;;;;;;;;5024944;28;20526;-58
2023/08/06 04:22:43;;;;;;;5.35;4.47;;;;;;;;;;5026999;28;20491;-59
2023/08/06 04:25:10;;;;;;;7.97;4.17;;;;;;;;;;5025509;28;20407;-58
2023/08/06 04:27:41;;;;;;;6.33;3.93;;;;;;;;;;5026750;28;20520;-59
2023/08/06 04:30:12;;;;;;;6.40;4.30;;;;;;;;;;5024684;28;20907;-59
2023/08/06 04:32:39;;;;;;;4.90;3.97;;;;;;;;;;5021996;28;20424;-59
2023/08/06 04:35:06;;;;;;;9.73;4.10;;;;;;;;;;5024762;28;20817;-57
2023/08/06 04:37:33;;;;;;;5.43;4.10;;;;;;;;;;5025450;28;20420;-59
2023/08/06 04:40:00;;;;;;;10.18;3.83;;;;;;;;;;5027810;28;20481;-57
2023/08/06 04:42:27;;;;;;;6.15;4.20;;;;;;;;;;5026878;28;20427;-59
2023/08/06 04:44:54;;;;;;;5.95;4.22;;;;;;;;;;5039817;28;20969;-58
2023/08/06 04:47:22;;;;;;;5.70;4.00;;;;;;;;;;5027809;28;20423;-59
2023/08/06 04:49:49;;;;;;;5.28;3.92;;;;;;;;;;5025914;28;20504;-61
2023/08/06 04:52:16;;;;;;;5.88;3.85;;;;;;;;;;5029430;28;21510;-59
2023/08/06 04:54:43;;;;;;;5.65;3.83;;;;;;;;;;5023068;28;20422;-59
2023/08/06 04:57:10;;;;;;;5.10;3.80;;;;;;;;;;5022999;28;20442;-59
2023/08/06 04:59:37;;;;;;;6.65;4.03;;;;;;;;;;5023807;28;20920;-59
2023/08/06 05:02:04;;;;;;;6.07;3.80;;;;;;;;;;5026602;28;20422;-59
2023/08/06 05:04:33;;;;;;;8.20;3.83;;;;;;;;;;5022836;28;20808;-57
2023/08/06 05:07:00;;;;;;;7.10;4.28;;;;;;;;;;5023212;28;20465;-59
2023/08/06 05:09:27;;;;;;;6.07;4.13;;;;;;;;;;5026051;28;20411;-59
2023/08/06 05:11:54;;;;;;;6.93;3.72;;;;;;;;;;5025107;28;20844;-58
2023/08/06 05:14:21;;;;;;;6.43;3.70;;;;;;;;;;5031639;28;20458;-60
2023/08/06 05:16:48;;;;;;;4.93;3.55;;;;;;;;;;5028057;28;20515;-59
2023/08/06 05:19:15;;;;;;;5.95;3.60;;;;;;;;;;5026008;28;20439;-59
2023/08/06 05:21:43;;;;;;;6.50;3.50;;;;;;;;;;5023324;28;20507;-59
2023/08/06 05:24:10;;;;;;;4.93;3.23;;;;;;;;;;5025958;28;20559;-59
2023/08/06 05:26:37;;;;;;;7.07;3.95;;;;;;;;;;5026445;28;20477;-59
2023/08/06 05:29:04;;;;;;;6.03;3.72;;;;;;;;;;5025806;28;20921;-59
2023/08/06 05:31:31;;;;;;;5.22;3.38;;;;;;;;;;5022435;28;20478;-59
2023/08/06 05:33:58;;;;;;;5.97;3.58;;;;;;;;;;5021382;28;20419;-59
2023/08/06 05:36:25;;;;;;;4.88;3.83;;;;;;;;;;5023000;28;20417;-58
2023/08/06 05:38:54;;;;;;;5.38;3.53;;;;;;;;;;5027878;28;20502;-58
2023/08/06 05:41:21;;;;;;;5.28;3.15;;;;;;;;;;5022761;28;20429;-58
2023/08/06 05:43:48;;;;;;;5.97;3.72;;;;;;;;;;5030349;28;20748;-59
2023/08/06 05:46:15;;;;;;;6.15;3.45;;;;;;;;;;5027335;28;20427;-59
2023/08/06 05:48:42;;;;;;;5.57;3.45;;;;;;;;;;5027537;28;20430;-59
2023/08/06 05:51:09;;;;;;;4.68;3.45;;;;;;;;;;5023414;28;20928;-59
2023/08/06 05:53:36;;;;;;;4.60;3.33;;;;;;;;;;5024562;28;20498;-58
2023/08/06 05:56:04;;;;;;;5.23;3.20;;;;;;;;;;5023814;28;20421;-59
2023/08/06 05:58:31;;;;;;;3.72;3.10;;;;;;;;;;5024054;28;20841;-59
2023/08/06 06:00:58;;;;;;;6.30;3.50;;;;;;;;;;5026468;28;20423;-59
2023/08/06 06:03:25;;;;;;;7.95;3.28;;;;;;;;;;5026892;28;20411;-59
2023/08/06 06:05:52;;;;;;;5.23;3.37;;;;;;;;;;5022875;28;20415;-60
2023/08/06 06:08:19;;;;;;;6.40;3.33;;;;;;;;;;5027355;28;20469;-60
2023/08/06 06:10:46;;;;;;;5.40;3.28;;;;;;;;;;5021766;28;20413;-59
2023/08/06 06:13:14;;;;;;;5.82;3.65;;;;;;;;;;5029846;28;20427;-60
2023/08/06 06:15:41;;;;;;;5.35;3.10;;;;;;;;;;5024957;28;20839;-60
2023/08/06 06:18:08;;;;;;;7.57;3.10;;;;;;;;;;5028968;28;20469;-61
2023/08/06 06:20:35;;;;;;;4.88;2.92;;;;;;;;;;5020070;28;20861;-60
2023/08/06 06:23:02;;;;;;;6.03;2.80;;;;;;;;;;5026587;28;20493;-60
2023/08/06 06:25:29;;;;;;;5.03;2.83;;;;;;;;;;5026131;28;20480;-58
2023/08/06 06:27:56;;;;;;;4.50;2.97;;;;;;;;;;5024210;28;20416;-60
2023/08/06 06:30:24;;;;;;;4.90;2.70;;;;;;;;;;5027336;28;20456;-60
2023/08/06 06:32:51;;;;;;;5.15;2.90;;;;;;;;;;5029509;28;20471;-60
2023/08/06 06:35:18;;;;;;;8.03;3.10;;;;;;;;;;5025944;28;20777;-60
2023/08/06 06:37:45;;;;;;;4.13;2.97;;;;;;;;;;5026652;28;20430;-60
2023/08/06 06:40:12;;;;;;;5.07;2.60;;;;;;;;;;5026036;28;20427;-61
2023/08/06 06:42:39;;;;;;;5.00;2.60;;;;;;;;;;5023841;28;20552;-61
2023/08/06 06:45:07;;;;;;;6.00;3.00;;;;;;;;;;5025889;28;20413;-61
2023/08/06 06:47:35;;;;;;;4.10;2.55;;;;;;;;;;5028461;28;20431;-60
2023/08/06 06:50:02;;;;;;;5.10;2.45;;;;;;;;;;5025139;28;20955;-61
2023/08/06 06:52:29;;;;;;;5.32;2.65;;;;;;;;;;5023953;28;20419;-61
2023/08/06 06:54:56;;;;;;;4.25;2.50;;;;;;;;;;5024408;28;20423;-61
2023/08/06 06:57:23;;;;;;;5.65;2.65;;;;;;;;;;5024228;28;20415;-61
2023/08/06 06:59:50;;;;;;;4.40;2.65;;;;;;;;;;5023911;28;20432;-60
2023/08/06 07:02:17;;;;;;;4.05;2.30;;;;;;;;;;5025889;28;20427;-60
2023/08/06 07:04:46;;;;;;;4.50;2.38;;;;;;;;;;5022574;28;20955;-60
2023/08/06 07:07:13;;;;;;;5.53;2.70;;;;;;;;;;5024573;28;20465;-61
2023/08/06 07:09:39;;;;;;;3.30;2.40;;;;;;;;;;5021662;28;20411;-61
2023/08/06 07:12:07;;;;;;;5.88;2.30;;;;;;;;;;5024470;28;20469;-59
2023/08/06 07:14:34;;;;;;;5.35;2.22;;;;;;;;;;5030296;28;20415;-60
2023/08/06 07:17:01;;;;;;;4.47;2.75;;;;;;;;;;5023491;28;20885;-61
2023/08/06 07:19:28;;;;;;;5.53;2.40;;;;;;;;;;5024379;28;20438;-60
2023/08/06 07:21:57;;;;;;;5.97;2.28;;;;;;;;;;5024379;28;20504;-61
2023/08/06 07:24:24;;;;;;;4.00;2.30;;;;;;;;;;5024620;28;20480;-60
2023/08/06 07:26:52;;;;;;;3.78;2.20;;;;;;;;;;5023484;28;20416;-60
2023/08/06 07:29:21;;;;;;;5.03;2.65;;;;;;;;;;5024591;28;20836;-61
2023/08/06 07:31:50;;;;;;;4.32;2.25;;;;;;;;;;5021452;28;20492;-61
2023/08/06 07:34:17;;;;;;;4.63;2.38;;;;;;;;;;5028202;28;20435;-61
2023/08/06 07:36:45;;;;;;;3.03;2.20;;;;;;;;;;5027679;28;20544;-59
2023/08/06 07:39:13;;;;;;;5.27;2.50;;;;;;;;;;5028147;28;20461;-60
2023/08/06 07:41:41;;;;;;;4.25;2.70;;;;;;;;;;5024112;28;20416;-58
2023/08/06 07:44:08;;;;;;;3.47;2.08;;;;;;;;;;5036600;28;20491;-60
2023/08/06 07:46:35;;;;;;;5.00;2.33;;;;;;;;;;5025698;28;20545;-60
2023/08/06 07:49:02;;;;;;;4.72;2.20;;;;;;;;;;5031350;28;20415;-60
2023/08/06 07:51:29;;;;;;;4.00;2.30;;;;;;;;;;5024238;28;20421;-60
2023/08/06 07:53:56;;;;;;;4.10;2.22;;;;;;;;;;5029147;28;20888;-60
2023/08/06 07:56:24;;;;;;;5.72;2.47;;;;;;;;;;5024338;28;20419;-59
2023/08/06 07:58:51;;;;;;;3.97;2.22;;;;;;;;;;5028195;28;20467;-61
2023/08/06 08:01:18;;;;;;;3.90;2.58;;;;;;;;;;5027828;28;20423;-61
2023/08/06 08:03:46;;;;;;;4.57;2.28;;;;;;;;;;5029413;28;20914;-61
2023/08/06 08:06:13;;;;;;;4.85;2.42;;;;;;;;;;5026130;28;20419;-60
2023/08/06 08:08:40;;;;;;;4.60;2.55;;;;;;;;;;5027713;28;20461;-61
2023/08/06 08:11:07;;;;;;;2.80;2.00;;;;;;;;;;5025719;28;20407;-60
2023/08/06 08:13:35;;;;;;;3.80;2.70;;;;;;;;;;5031609;28;20513;-61
2023/08/06 08:16:02;;;;;;;4.32;2.58;;;;;;;;;;5033003;28;20421;-61
2023/08/06 08:18:31;;;;;;;5.33;3.03;;;;;;;;;;5025420;28;20497;-61
2023/08/06 08:20:58;;;;;;;3.78;2.40;;;;;;;;;;5024430;28;21015;-60
2023/08/06 08:23:25;;;;;;;3.10;2.13;;;;;;;;;;5031269;28;20419;-60
2023/08/06 08:25:52;;;;;;;3.60;2.30;;;;;;;;;;5026936;28;20892;-61
2023/08/06 08:28:19;;;;;;;3.77;2.17;;;;;;;;;;5028501;28;20410;-61
2023/08/06 08:30:47;;;;;;;5.22;2.42;;;;;;;;;;5025556;28;20418;-60
2023/08/06 08:33:14;;;;;;;3.33;2.00;;;;;;;;;;5028914;28;20418;-61
2023/08/06 08:35:41;;;;;;;3.08;2.08;;;;;;;;;;5024615;28;20465;-59
2023/08/06 08:38:08;;;;;;;3.95;2.40;;;;;;;;;;5029148;28;20438;-61
2023/08/06 08:40:39;;;;;;;3.88;2.22;;;;;;;;;;5024476;28;20427;-60
2023/08/06 08:43:06;;;;;;;2.63;1.77;;;;;;;;;;5026059;28;21072;-62
2023/08/06 08:45:36;;;;;;;4.72;2.03;;;;;;;;;;5029536;28;20472;-61
2023/08/06 08:48:04;;;;;;;3.97;2.10;;;;;;;;;;5031501;28;20409;-61
2023/08/06 08:50:31;;;;;;;4.25;1.77;;;;;;;;;;5033087;28;20419;-61
2023/08/06 08:52:58;;;;;;;5.28;1.80;;;;;;;;;;5025336;28;20426;-62
2023/08/06 08:55:25;;;;;;;4.88;2.28;;;;;;;;;;5022183;28;20469;-61
2023/08/06 08:57:52;;;;;;;3.08;1.90;;;;;;;;;;5023276;28;20464;-61
2023/08/06 09:00:20;;;;;;;4.07;2.25;;;;;;;;;;5020314;28;20491;-61
2023/08/06 09:02:47;;;;;;;5.38;2.30;;;;;;;;;;5026152;28;20911;-63
2023/08/06 09:05:16;;;;;;;3.33;2.47;;;;;;;;;;5026238;28;20422;-63
2023/08/06 09:07:44;;;;;;;6.25;2.63;;;;;;;;;;5021773;28;20416;-63
2023/08/06 09:10:13;;;;;;;4.20;2.70;;;;;;;;;;5029192;28;20591;-63
2023/08/06 09:12:40;;;;;;;3.80;3.13;;;;;;;;;;5025326;28;20503;-60
2023/08/06 09:15:08;;;;;;;3.80;2.88;;;;;;;;;;5017925;28;20891;-60
2023/08/06 09:17:35;;;;;;;4.63;3.13;;;;;;;;;;5018726;28;20452;-60
2023/08/06 09:20:10;;;;;;;3.97;3.45;;;;;;;;;;5024899;28;20462;-60
2023/08/06 09:22:38;;;;;;;5.45;3.60;;;;;;;;;;5019925;28;20417;-60
2023/08/06 09:25:09;;;;;;;6.13;3.90;;;;;;;;;;5027093;28;20422;-60
2023/08/06 09:27:36;;;;;;;3.83;3.42;;;;;;;;;;5022975;28;20428;-60
2023/08/06 09:30:04;;;;;;;5.22;3.80;;;;;;;;;;5025938;28;20412;-60
2023/08/06 09:32:46;;;;;;;4.50;3.10;;;;;;;;;;5021134;28;20555;-59
2023/08/06 09:35:16;;;;;;;4.05;3.60;;;;;;;;;;5023390;28;20495;-60
2023/08/06 09:37:45;;;;;;;4.15;3.28;;;;;;;;;;5022320;28;20432;-59
2023/08/06 09:40:27;;;;;;;8.40;3.50;;;;;;;;;;5026059;28;20487;-61
2023/08/06 09:42:54;;;;;;;6.27;3.20;;;;;;;;;;5021711;28;20773;-65
2023/08/06 09:45:22;;;;;;;4.80;3.35;;;;;;;;;;5020866;28;20892;-67
2023/08/06 09:47:50;;;;;;;6.75;3.30;;;;;;;;;;5025212;28;20888;-67
2023/08/06 09:50:18;;;;;;;5.45;3.85;;;;;;;;;;5026146;28;20433;-67
2023/08/06 09:52:46;;;;;;;6.97;3.80;;;;;;;;;;5028560;28;20800;-67
2023/08/06 09:55:14;;;;;;;6.30;4.05;;;;;;;;;;5019689;28;20887;-68
2023/08/06 09:57:41;;;;;;;4.88;4.35;;;;;;;;;;5023798;28;20419;-68
2023/08/06 10:00:09;;;;;;;6.85;4.32;;;;;;;;;;5025169;28;20497;-68
2023/08/06 10:02:37;;;;;;;6.95;4.40;;;;;;;;;;5022252;28;20411;-66
2023/08/06 10:05:04;;;;;;;6.25;4.70;;;;;;;;;;5022146;28;20416;-67
2023/08/06 10:07:31;;;;;;;7.65;4.60;;;;;;;;;;5024422;28;20909;-64
2023/08/06 10:10:00;;;;;;;7.90;5.30;;;;;;;;;;5023881;28;20455;-64
2023/08/06 10:12:28;;;;;;;6.70;5.32;;;;;;;;;;5024923;28;20419;-63
2023/08/06 10:14:56;;;;;;;6.45;5.00;;;;;;;;;;5026786;28;20416;-64
2023/08/06 10:17:24;;;;;;;6.68;5.05;;;;;;;;;;5020170;28;20418;-63
2023/08/06 10:19:51;;;;;;;7.30;5.88;;;;;;;;;;5025462;28;20445;-64
2023/08/06 10:22:19;;;;;;;6.93;5.47;;;;;;;;;;5028557;28;20419;-64
2023/08/06 10:24:50;;;;;;;7.13;5.03;;;;;;;;;;5030970;28;20470;-64
2023/08/06 10:27:22;;;;;;;7.10;5.95;;;;;;;;;;5032170;28;20423;-64
2023/08/06 10:29:49;;;;;;;6.13;5.10;;;;;;;;;;5022803;28;20499;-63
2023/08/06 10:32:18;;;;;;;8.38;5.72;;;;;;;;;;5025907;28;20518;-63
2023/08/06 10:34:58;;;;;;;6.30;5.07;;;;;;;;;;5020168;28;20458;-64
2023/08/06 10:37:25;;;;;;;7.32;5.60;;;;;;;;;;5024383;28;20879;-63
2023/08/06 10:39:52;;;;;;;8.15;5.22;;;;;;;;;;5020572;28;20490;-63
2023/08/06 10:42:28;;;;;;;6.75;4.85;;;;;;;;;;5027486;28;20418;-64
2023/08/06 10:45:14;;;;;;;5.50;4.60;;;;;;;;;;5032245;28;20900;-65
2023/08/06 10:47:42;;;;;;;5.25;4.68;;;;;;;;;;5022795;28;20406;-65
2023/08/06 10:50:09;;;;;;;6.57;5.13;;;;;;;;;;5021810;28;20409;-64
2023/08/06 10:52:36;;;;;;;7.57;5.22;;;;;;;;;;5024530;28;20477;-64
2023/08/06 10:55:04;;;;;;;14.07;8.10;;;;;;;;;;5024653;28;20790;-63
2023/08/06 10:57:32;;;;;;;51.20;20.23;;;;;;;;;;5024947;28;20951;-65
2023/08/06 10:59:59;;;;;;;7.88;5.65;;;;;;;;;;5021387;28;20418;-64
2023/08/06 11:02:26;;;;;;;6.20;4.60;;;;;;;;;;5027426;28;20840;-65
2023/08/06 11:04:53;;;;;;;6.72;4.80;;;;;;;;;;5022952;28;20414;-65
2023/08/06 11:07:23;;;;;;;4.97;4.43;;;;;;;;;;5026384;28;20469;-66
2023/08/06 11:09:52;;;;;;;5.30;4.40;;;;;;;;;;5023474;28;20473;-67
2023/08/06 11:12:20;;;;;;;9.40;5.85;;;;;;;;;;5026493;28;20450;-64
2023/08/06 11:14:52;;;;;;;5.70;5.00;;;;;;;;;;5022809;28;20441;-64
2023/08/06 11:17:19;;;;;;;6.50;4.70;;;;;;;;;;5028690;28;20729;-64
2023/08/06 11:19:46;;;;;;;7.60;4.70;;;;;;;;;;5024528;28;20806;-64
2023/08/06 11:22:13;;;;;;;5.30;4.80;;;;;;;;;;5022508;28;20427;-64
2023/08/06 11:24:40;;;;;;;5.88;4.95;;;;;;;;;;5024582;28;20476;-64
2023/08/06 11:27:12;;;;;;;5.57;5.05;;;;;;;;;;5023758;28;20413;-65
2023/08/06 11:29:39;;;;;;;7.35;6.30;;;;;;;;;;5024881;28;20505;-63
2023/08/06 11:32:08;;;;;;;6.93;5.90;;;;;;;;;;5025053;28;20411;-66
2023/08/06 11:34:35;;;;;;;6.75;5.68;;;;;;;;;;5023843;28;20517;-63
2023/08/06 11:37:05;;;;;;;7.05;6.15;;;;;;;;;;5023927;28;20421;-64
2023/08/06 11:39:32;;;;;;;7.30;6.00;;;;;;;;;;5018503;28;20417;-64
2023/08/06 11:42:02;;;;;;;6.67;6.07;;;;;;;;;;5028029;28;20438;-64
2023/08/06 11:44:31;;;;;;;7.13;6.43;;;;;;;;;;5038678;28;20685;-64
2023/08/06 11:47:01;;;;;;;7.47;6.18;;;;;;;;;;5026670;28;20495;-64
2023/08/06 11:49:44;;;;;;;7.35;6.65;;;;;;;;;;5029252;28;20505;-63
2023/08/06 11:52:22;;;;;;;8.45;7.05;;;;;;;;;;5024758;28;20414;-63
2023/08/06 11:55:01;;;;;;;8.25;7.43;;;;;;;;;;5024702;28;20551;-62
2023/08/06 11:57:28;;;;;;;8.27;7.47;;;;;;;;;;5025844;28;20419;-63
2023/08/06 11:59:55;;;;;;;8.73;7.82;;;;;;;;;;5032356;28;20421;-62
2023/08/06 12:02:27;;;;;;;9.13;8.27;;;;;;;;;;5028303;28;20556;-62
2023/08/06 12:05:04;;;;;;;8.55;7.75;;;;;;;;;;5027505;28;20416;-62
2023/08/06 12:07:31;;;;;;;8.45;7.65;;;;;;;;;;5026675;28;20485;-62
2023/08/06 12:09:59;;;;;;;10.35;9.35;;;;;;;;;;5029515;28;20834;-62
2023/08/06 12:12:26;;;;;;;14.73;11.45;;;;;;;;;;5025209;28;20411;-62
2023/08/06 12:14:53;;;;;;;7.05;6.38;;;;;;;;;;5031578;28;20467;-62
2023/08/06 12:17:20;;;;;;;6.57;5.97;;;;;;;;;;5023753;28;20419;-63
2023/08/06 12:19:48;;;;;;;6.63;5.90;;;;;;;;;;5025186;28;22282;-63
2023/08/06 12:22:17;;;;;;;7.78;6.93;;;;;;;;;;5026233;28;20430;-63
2023/08/06 12:24:44;;;;;;;7.50;6.80;;;;;;;;;;5026994;28;20421;-63
2023/08/06 12:27:11;;;;;;;8.48;7.28;;;;;;;;;;5026928;28;20890;-63
2023/08/06 12:29:38;;;;;;;10.23;8.73;;;;;;;;;;5026388;28;20469;-63
2023/08/06 12:32:06;;;;;;;8.52;7.63;;;;;;;;;;5030405;28;21497;-63
2023/08/06 12:34:33;;;;;;;8.18;7.38;;;;;;;;;;5024819;28;20415;-63
2023/08/06 12:37:00;;;;;;;7.70;7.00;;;;;;;;;;5020671;28;20533;-65
2023/08/06 12:39:28;;;;;;;6.47;5.88;;;;;;;;;;5024466;28;20419;-65
2023/08/06 12:41:57;;;;;;;4.53;4.13;;;;;;;;;;5023477;28;20457;-64
2023/08/06 12:44:24;;;;;;;2.80;2.37;;;;;;;;;;5029024;28;20423;-63
2023/08/06 12:46:51;;;;;;;3.08;2.00;;;;;;;;;;5030873;28;20425;-63
2023/08/06 12:49:18;;;;;;;2.97;2.22;;;;;;;;;;5020541;28;20864;-64
2023/08/06 12:51:45;;;;;;;2.20;1.85;;;;;;;;;;5028104;28;20427;-64
2023/08/06 12:54:12;;;;;;;1.80;1.70;;;;;;;;;;5027193;28;20411;-63
2023/08/06 12:56:40;;;;;;;1.60;1.33;;;;;;;;;;5035773;28;20611;-64
2023/08/06 12:59:07;;;;;;;1.30;1.10;;;;;;;;;;5022714;28;20420;-63
2023/08/06 13:01:34;;;;;;;1.58;1.30;;;;;;;;;;5030023;28;20500;-61
2023/08/06 13:04:01;;;;;;;1.27;1.17;;;;;;;;;;5025108;28;20496;-61
2023/08/06 13:06:28;;;;;;;1.83;1.40;;;;;;;;;;5030256;28;20498;-62
2023/08/06 13:08:55;;;;;;;2.30;1.13;;;;;;;;;;5025657;28;20415;-62
2023/08/06 13:11:22;;;;;;;1.13;1.00;;;;;;;;;;5022790;28;20408;-62
2023/08/06 13:13:51;;;;;;;1.95;1.00;;;;;;;;;;5026788;28;20417;-61
2023/08/06 13:16:18;;;;;;;1.60;1.10;;;;;;;;;;5032487;28;20433;-62
2023/08/06 13:18:45;;;;;;;1.90;1.10;;;;;;;;;;5022033;28;20421;-62
2023/08/06 13:21:12;;;;;;;1.83;1.42;;;;;;;;;;5027612;28;20782;-62
2023/08/06 13:23:39;;;;;;;2.50;0.93;;;;;;;;;;5021731;28;20462;-62
2023/08/06 13:26:06;;;;;;;1.60;0.88;;;;;;;;;;5026636;28;20475;-62
2023/08/06 13:28:33;;;;;;;1.37;1.10;;;;;;;;;;5020261;28;20844;-62
2023/08/06 13:31:01;;;;;;;1.48;1.00;;;;;;;;;;5020456;28;20412;-62
2023/08/06 13:33:28;;;;;;;3.40;1.20;;;;;;;;;;5026294;28;20430;-64
2023/08/06 13:35:55;;;;;;;2.08;1.38;;;;;;;;;;5026403;28;20413;-64
2023/08/06 13:38:22;;;;;;;2.37;1.40;;;;;;;;;;5038931;28;20413;-64
2023/08/06 13:40:49;;;;;;;4.13;1.20;;;;;;;;;;5058696;28;20778;-63
2023/08/06 13:43:18;;;;;;;1.50;1.40;;;;;;;;;;5060301;28;20423;-63
2023/08/06 13:45:45;;;;;;;1.60;1.30;;;;;;;;;;5066473;28;20893;-63
2023/08/06 13:48:14;;;;;;;2.00;1.50;;;;;;;;;;5058543;28;20425;-65
2023/08/06 13:50:41;;;;;;;2.45;1.35;;;;;;;;;;5060796;28;20959;-66
2023/08/06 13:53:08;;;;;;;2.63;1.40;;;;;;;;;;5057686;28;20417;-59
2023/08/06 13:55:35;;;;;;;2.38;1.85;;;;;;;;;;5059940;28;20419;-59
2023/08/06 13:58:02;;;;;;;1.92;1.63;;;;;;;;;;5057532;28;20415;-64
2023/08/06 14:00:30;;;;;;;2.80;1.80;;;;;;;;;;5059946;28;20435;-64
2023/08/06 14:02:57;;;;;;;2.45;1.77;;;;;;;;;;5057124;28;20439;-64
2023/08/06 14:05:25;;;;;;;2.30;2.10;;;;;;;;;;5058676;28;20911;-63
2023/08/06 14:07:52;;;;;;;3.00;2.25;;;;;;;;;;5054083;28;20406;-63
2023/08/06 14:10:19;;;;;;;2.25;2.03;;;;;;;;;;5061159;28;20411;-62
2023/08/06 14:12:46;;;;;;;3.50;2.70;;;;;;;;;;5063023;28;20424;-64
2023/08/06 14:15:13;;;;;;;4.30;3.15;;;;;;;;;;5063424;28;20415;-64
2023/08/06 14:17:40;;;;;;;4.82;3.20;;;;;;;;;;5062241;28;20407;-63
2023/08/06 14:20:11;;;;;;;5.88;3.85;;;;;;;;;;5059861;28;20409;-63
2023/08/06 14:22:39;;;;;;;4.45;4.00;;;;;;;;;;5051249;28;20426;-64
2023/08/06 14:25:07;;;;;;;5.30;4.20;;;;;;;;;;5057188;28;20475;-63
2023/08/06 14:27:34;;;;;;;5.30;4.20;;;;;;;;;;5058109;28;20419;-63
2023/08/06 14:30:02;;;;;;;5.30;4.10;;;;;;;;;;5063066;28;20424;-63
2023/08/06 14:32:29;;;;;;;7.20;4.63;;;;;;;;;;5056048;28;20420;-62
2023/08/06 14:34:57;;;;;;;6.70;4.40;;;;;;;;;;5061809;28;20416;-62
2023/08/06 14:37:24;;;;;;;6.70;5.18;;;;;;;;;;5056206;28;20474;-62
2023/08/06 14:39:52;;;;;;;5.57;4.55;;;;;;;;;;5055839;28;20909;-63
2023/08/06 14:42:19;;;;;;;6.18;4.80;;;;;;;;;;5056233;28;20433;-62
2023/08/06 14:44:46;;;;;;;6.45;5.00;;;;;;;;;;5063359;28;20432;-63
2023/08/06 14:47:13;;;;;;;6.82;5.28;;;;;;;;;;5061039;28;20418;-63